sensor_id;sensor_type;location;lat;lon;timestamp;P1;durP1;ratioP1;P2;durP2;ratioP2
43226;SDS011;28839;52.404;9.808;2024-01-30T00:03:28;17.37;;;10.48;;
43226;SDS011;28839;52.404;9.808;2024-01-30T00:10:23;15.17;;;10.87;;
43226;SDS011;28839;52.404;9.808;2024-01-30T00:24:12;21.75;;;13.48;;
43226;SDS011;28839;52.404;9.808;2024-01-30T00:31:07;18.05;;;11.60;;
43226;SDS011;28839;52.404;9.808;2024-01-30T00:38:04;19.30;;;11.45;;
43226;SDS011;28839;52.404;9.808;2024-01-30T00:44:59;15.80;;;11.45;;
43226;SDS011;28839;52.404;9.808;2024-01-30T00:51:55;16.23;;;11.70;;
43226;SDS011;28839;52.404;9.808;2024-01-30T01:05:42;15.95;;;10.88;;
43226;SDS011;28839;52.404;9.808;2024-01-30T01:12:39;17.77;;;11.32;;
43226;SDS011;28839;52.404;9.808;2024-01-30T01:19:33;16.10;;;10.68;;
43226;SDS011;28839;52.404;9.808;2024-01-30T01:26:26;16.55;;;11.35;;
43226;SDS011;28839;52.404;9.808;2024-01-30T01:33:21;16.50;;;11.40;;
43226;SDS011;28839;52.404;9.808;2024-01-30T01:47:09;19.12;;;11.85;;
43226;SDS011;28839;52.404;9.808;2024-01-30T01:54:04;12.47;;;9.73;;
43226;SDS011;28839;52.404;9.808;2024-01-30T02:00:58;17.12;;;12.10;;
43226;SDS011;28839;52.404;9.808;2024-01-30T02:07:52;18.15;;;12.75;;
43226;SDS011;28839;52.404;9.808;2024-01-30T02:14:48;15.90;;;11.88;;
43226;SDS011;28839;52.404;9.808;2024-01-30T02:21:45;14.48;;;11.25;;
43226;SDS011;28839;52.404;9.808;2024-01-30T02:28:39;17.17;;;11.05;;
43226;SDS011;28839;52.404;9.808;2024-01-30T02:35:33;17.02;;;12.93;;
43226;SDS011;28839;52.404;9.808;2024-01-30T02:42:28;17.15;;;11.43;;
43226;SDS011;28839;52.404;9.808;2024-01-30T02:56:15;18.67;;;11.93;;
43226;SDS011;28839;52.404;9.808;2024-01-30T03:03:11;17.67;;;13.05;;
43226;SDS011;28839;52.404;9.808;2024-01-30T03:16:58;18.12;;;11.93;;
43226;SDS011;28839;52.404;9.808;2024-01-30T03:23:53;20.40;;;12.40;;
43226;SDS011;28839;52.404;9.808;2024-01-30T03:37:41;18.77;;;13.00;;
43226;SDS011;28839;52.404;9.808;2024-01-30T03:44:36;21.87;;;12.80;;
43226;SDS011;28839;52.404;9.808;2024-01-30T03:58:23;19.70;;;11.90;;
43226;SDS011;28839;52.404;9.808;2024-01-30T04:05:18;17.02;;;11.95;;
43226;SDS011;28839;52.404;9.808;2024-01-30T04:19:06;18.45;;;11.30;;
43226;SDS011;28839;52.404;9.808;2024-01-30T04:26:01;17.65;;;11.70;;
43226;SDS011;28839;52.404;9.808;2024-01-30T04:32:55;22.73;;;12.02;;
43226;SDS011;28839;52.404;9.808;2024-01-30T04:39:48;17.12;;;12.55;;
43226;SDS011;28839;52.404;9.808;2024-01-30T04:46:43;19.05;;;12.30;;
43226;SDS011;28839;52.404;9.808;2024-01-30T05:00:31;17.10;;;11.70;;
43226;SDS011;28839;52.404;9.808;2024-01-30T05:07:29;17.33;;;11.23;;
43226;SDS011;28839;52.404;9.808;2024-01-30T05:14:23;18.55;;;10.52;;
43226;SDS011;28839;52.404;9.808;2024-01-30T05:21:17;15.73;;;10.77;;
43226;SDS011;28839;52.404;9.808;2024-01-30T05:28:12;17.12;;;11.75;;
43226;SDS011;28839;52.404;9.808;2024-01-30T05:35:06;14.90;;;11.10;;
43226;SDS011;28839;52.404;9.808;2024-01-30T05:42:00;18.10;;;11.67;;
43226;SDS011;28839;52.404;9.808;2024-01-30T05:48:56;15.07;;;10.40;;
43226;SDS011;28839;52.404;9.808;2024-01-30T06:02:43;17.00;;;10.40;;
43226;SDS011;28839;52.404;9.808;2024-01-30T06:09:38;15.18;;;10.45;;
43226;SDS011;28839;52.404;9.808;2024-01-30T06:16:33;17.55;;;11.27;;
43226;SDS011;28839;52.404;9.808;2024-01-30T06:23:26;19.30;;;11.07;;
43226;SDS011;28839;52.404;9.808;2024-01-30T06:30:22;19.00;;;11.63;;
43226;SDS011;28839;52.404;9.808;2024-01-30T06:37:15;18.60;;;11.80;;
43226;SDS011;28839;52.404;9.808;2024-01-30T06:44:09;16.45;;;11.98;;
43226;SDS011;28839;52.404;9.808;2024-01-30T06:51:04;20.92;;;12.37;;
43226;SDS011;28839;52.404;9.808;2024-01-30T07:04:51;22.55;;;11.52;;
43226;SDS011;28839;52.404;9.808;2024-01-30T07:11:46;16.83;;;11.20;;
43226;SDS011;28839;52.404;9.808;2024-01-30T07:25:34;16.55;;;12.00;;
43226;SDS011;28839;52.404;9.808;2024-01-30T07:32:30;20.73;;;11.68;;
43226;SDS011;28839;52.404;9.808;2024-01-30T07:39:23;18.05;;;11.82;;
43226;SDS011;28839;52.404;9.808;2024-01-30T07:46:17;19.67;;;11.68;;
43226;SDS011;28839;52.404;9.808;2024-01-30T07:53:12;15.50;;;11.38;;
43226;SDS011;28839;52.404;9.808;2024-01-30T08:00:06;17.37;;;11.32;;
43226;SDS011;28839;52.404;9.808;2024-01-30T08:07:01;12.83;;;10.23;;
43226;SDS011;28839;52.404;9.808;2024-01-30T08:13:56;16.08;;;11.18;;
43226;SDS011;28839;52.404;9.808;2024-01-30T08:27:43;15.27;;;10.55;;
43226;SDS011;28839;52.404;9.808;2024-01-30T08:34:38;18.48;;;10.57;;
43226;SDS011;28839;52.404;9.808;2024-01-30T08:48:26;16.37;;;9.52;;
43226;SDS011;28839;52.404;9.808;2024-01-30T08:55:21;15.40;;;10.05;;
43226;SDS011;28839;52.404;9.808;2024-01-30T09:09:10;12.93;;;9.73;;
43226;SDS011;28839;52.404;9.808;2024-01-30T09:16:05;13.30;;;9.18;;
43226;SDS011;28839;52.404;9.808;2024-01-30T09:23:00;14.90;;;9.93;;
43226;SDS011;28839;52.404;9.808;2024-01-30T09:29:54;12.02;;;9.50;;
43226;SDS011;28839;52.404;9.808;2024-01-30T09:36:49;12.82;;;9.00;;
43226;SDS011;28839;52.404;9.808;2024-01-30T09:43:43;13.48;;;9.57;;
43226;SDS011;28839;52.404;9.808;2024-01-30T09:50:41;12.20;;;9.43;;
43226;SDS011;28839;52.404;9.808;2024-01-30T09:57:36;14.60;;;10.43;;
43226;SDS011;28839;52.404;9.808;2024-01-30T10:04:30;17.85;;;9.48;;
43226;SDS011;28839;52.404;9.808;2024-01-30T10:11:24;12.18;;;7.75;;
43226;SDS011;28839;52.404;9.808;2024-01-30T10:18:19;19.90;;;10.02;;
43226;SDS011;28839;52.404;9.808;2024-01-30T10:25:13;13.15;;;8.88;;
43226;SDS011;28839;52.404;9.808;2024-01-30T10:32:07;15.57;;;9.63;;
43226;SDS011;28839;52.404;9.808;2024-01-30T10:39:03;16.70;;;9.50;;
43226;SDS011;28839;52.404;9.808;2024-01-30T10:46:03;13.07;;;9.23;;
43226;SDS011;28839;52.404;9.808;2024-01-30T10:53:03;15.45;;;9.02;;
43226;SDS011;28839;52.404;9.808;2024-01-30T10:59:59;11.57;;;8.55;;
43226;SDS011;28839;52.404;9.808;2024-01-30T11:06:57;13.60;;;9.02;;
43226;SDS011;28839;52.404;9.808;2024-01-30T11:13:51;17.23;;;9.77;;
43226;SDS011;28839;52.404;9.808;2024-01-30T11:20:46;12.40;;;9.00;;
43226;SDS011;28839;52.404;9.808;2024-01-30T11:27:42;16.55;;;9.20;;
43226;SDS011;28839;52.404;9.808;2024-01-30T11:34:36;13.10;;;9.48;;
43226;SDS011;28839;52.404;9.808;2024-01-30T11:41:35;15.27;;;9.63;;
43226;SDS011;28839;52.404;9.808;2024-01-30T11:48:31;14.13;;;9.75;;
43226;SDS011;28839;52.404;9.808;2024-01-30T11:55:25;14.18;;;9.43;;
43226;SDS011;28839;52.404;9.808;2024-01-30T12:02:21;17.00;;;10.18;;
43226;SDS011;28839;52.404;9.808;2024-01-30T12:09:15;14.38;;;9.57;;
43226;SDS011;28839;52.404;9.808;2024-01-30T12:16:09;13.48;;;9.15;;
43226;SDS011;28839;52.404;9.808;2024-01-30T12:23:04;11.60;;;8.80;;
43226;SDS011;28839;52.404;9.808;2024-01-30T12:29:58;13.40;;;9.55;;
43226;SDS011;28839;52.404;9.808;2024-01-30T12:36:52;13.18;;;9.15;;
43226;SDS011;28839;52.404;9.808;2024-01-30T12:43:47;11.48;;;8.85;;
43226;SDS011;28839;52.404;9.808;2024-01-30T12:50:41;12.90;;;8.40;;
43226;SDS011;28839;52.404;9.808;2024-01-30T12:57:35;13.52;;;8.88;;
43226;SDS011;28839;52.404;9.808;2024-01-30T13:04:32;10.50;;;8.35;;
43226;SDS011;28839;52.404;9.808;2024-01-30T13:11:26;14.20;;;9.38;;
43226;SDS011;28839;52.404;9.808;2024-01-30T13:18:20;14.00;;;9.13;;
43226;SDS011;28839;52.404;9.808;2024-01-30T13:25:15;17.30;;;9.63;;
43226;SDS011;28839;52.404;9.808;2024-01-30T13:32:09;16.55;;;9.15;;
43226;SDS011;28839;52.404;9.808;2024-01-30T13:39:03;14.55;;;8.70;;
43226;SDS011;28839;52.404;9.808;2024-01-30T13:46:00;11.35;;;8.38;;
43226;SDS011;28839;52.404;9.808;2024-01-30T13:52:55;13.50;;;8.40;;
43226;SDS011;28839;52.404;9.808;2024-01-30T13:59:49;11.73;;;8.23;;
43226;SDS011;28839;52.404;9.808;2024-01-30T14:06:44;15.40;;;9.48;;
43226;SDS011;28839;52.404;9.808;2024-01-30T14:13:38;13.25;;;8.70;;
43226;SDS011;28839;52.404;9.808;2024-01-30T14:20:32;16.20;;;9.60;;
43226;SDS011;28839;52.404;9.808;2024-01-30T14:27:27;18.30;;;9.43;;
43226;SDS011;28839;52.404;9.808;2024-01-30T14:34:20;12.65;;;8.02;;
43226;SDS011;28839;52.404;9.808;2024-01-30T14:41:14;13.80;;;8.20;;
43226;SDS011;28839;52.404;9.808;2024-01-30T14:48:09;12.68;;;8.93;;
43226;SDS011;28839;52.404;9.808;2024-01-30T14:55:03;14.52;;;9.13;;
43226;SDS011;28839;52.404;9.808;2024-01-30T15:01:58;14.70;;;9.10;;
43226;SDS011;28839;52.404;9.808;2024-01-30T15:08:53;15.18;;;9.35;;
43226;SDS011;28839;52.404;9.808;2024-01-30T15:15:47;13.23;;;8.77;;
43226;SDS011;28839;52.404;9.808;2024-01-30T15:22:40;12.37;;;9.05;;
43226;SDS011;28839;52.404;9.808;2024-01-30T15:29:36;14.37;;;9.43;;
43226;SDS011;28839;52.404;9.808;2024-01-30T15:36:29;16.00;;;10.32;;
43226;SDS011;28839;52.404;9.808;2024-01-30T15:43:23;15.77;;;12.27;;
43226;SDS011;28839;52.404;9.808;2024-01-30T15:50:18;15.23;;;9.85;;
43226;SDS011;28839;52.404;9.808;2024-01-30T15:57:12;15.30;;;8.85;;
43226;SDS011;28839;52.404;9.808;2024-01-30T16:04:06;12.37;;;8.90;;
43226;SDS011;28839;52.404;9.808;2024-01-30T16:11:01;15.75;;;9.25;;
43226;SDS011;28839;52.404;9.808;2024-01-30T16:17:55;16.17;;;10.15;;
43226;SDS011;28839;52.404;9.808;2024-01-30T16:24:49;13.83;;;10.57;;
43226;SDS011;28839;52.404;9.808;2024-01-30T16:31:44;16.30;;;9.10;;
43226;SDS011;28839;52.404;9.808;2024-01-30T16:38:38;16.33;;;10.55;;
43226;SDS011;28839;52.404;9.808;2024-01-30T16:45:32;16.17;;;10.27;;
43226;SDS011;28839;52.404;9.808;2024-01-30T16:52:27;15.60;;;10.40;;
43226;SDS011;28839;52.404;9.808;2024-01-30T16:59:22;13.50;;;11.07;;
43226;SDS011;28839;52.404;9.808;2024-01-30T17:06:16;17.10;;;12.35;;
43226;SDS011;28839;52.404;9.808;2024-01-30T17:13:11;27.48;;;15.57;;
43226;SDS011;28839;52.404;9.808;2024-01-30T17:20:06;18.48;;;11.80;;
43226;SDS011;28839;52.404;9.808;2024-01-30T17:27:00;19.25;;;15.18;;
43226;SDS011;28839;52.404;9.808;2024-01-30T17:33:55;21.50;;;14.13;;
43226;SDS011;28839;52.404;9.808;2024-01-30T17:40:49;18.55;;;14.68;;
43226;SDS011;28839;52.404;9.808;2024-01-30T17:47:43;27.98;;;21.70;;
43226;SDS011;28839;52.404;9.808;2024-01-30T17:54:38;21.08;;;14.30;;
43226;SDS011;28839;52.404;9.808;2024-01-30T18:01:32;25.75;;;16.02;;
43226;SDS011;28839;52.404;9.808;2024-01-30T18:08:27;22.17;;;16.27;;
43226;SDS011;28839;52.404;9.808;2024-01-30T18:15:22;19.65;;;13.93;;
43226;SDS011;28839;52.404;9.808;2024-01-30T18:22:16;17.60;;;13.50;;
43226;SDS011;28839;52.404;9.808;2024-01-30T18:29:10;26.08;;;15.88;;
43226;SDS011;28839;52.404;9.808;2024-01-30T18:36:05;18.42;;;14.48;;
43226;SDS011;28839;52.404;9.808;2024-01-30T18:43:00;15.68;;;11.93;;
43226;SDS011;28839;52.404;9.808;2024-01-30T18:49:56;20.37;;;11.43;;
43226;SDS011;28839;52.404;9.808;2024-01-30T18:56:51;14.00;;;9.73;;
43226;SDS011;28839;52.404;9.808;2024-01-30T19:03:45;8.30;;;5.85;;
43226;SDS011;28839;52.404;9.808;2024-01-30T19:10:39;6.72;;;4.18;;
43226;SDS011;28839;52.404;9.808;2024-01-30T19:17:34;8.82;;;3.42;;
43226;SDS011;28839;52.404;9.808;2024-01-30T19:24:28;9.35;;;3.85;;
43226;SDS011;28839;52.404;9.808;2024-01-30T19:31:22;5.57;;;4.53;;
43226;SDS011;28839;52.404;9.808;2024-01-30T19:38:17;7.30;;;3.97;;
43226;SDS011;28839;52.404;9.808;2024-01-30T19:45:11;8.43;;;5.15;;
43226;SDS011;28839;52.404;9.808;2024-01-30T19:52:05;7.62;;;4.25;;
43226;SDS011;28839;52.404;9.808;2024-01-30T20:05:55;5.83;;;3.90;;
43226;SDS011;28839;52.404;9.808;2024-01-30T20:12:49;9.45;;;4.75;;
43226;SDS011;28839;52.404;9.808;2024-01-30T20:19:44;5.00;;;2.90;;
43226;SDS011;28839;52.404;9.808;2024-01-30T20:26:38;9.23;;;3.42;;
43226;SDS011;28839;52.404;9.808;2024-01-30T20:33:31;5.70;;;3.87;;
43226;SDS011;28839;52.404;9.808;2024-01-30T20:40:28;7.22;;;3.87;;
43226;SDS011;28839;52.404;9.808;2024-01-30T20:47:21;4.65;;;3.65;;
43226;SDS011;28839;52.404;9.808;2024-01-30T20:54:15;6.20;;;3.83;;
43226;SDS011;28839;52.404;9.808;2024-01-30T21:01:10;6.55;;;3.90;;
43226;SDS011;28839;52.404;9.808;2024-01-30T21:08:04;7.62;;;4.03;;
43226;SDS011;28839;52.404;9.808;2024-01-30T21:15:00;6.47;;;4.47;;
43226;SDS011;28839;52.404;9.808;2024-01-30T21:21:57;7.03;;;4.80;;
43226;SDS011;28839;52.404;9.808;2024-01-30T21:28:50;6.50;;;4.72;;
43226;SDS011;28839;52.404;9.808;2024-01-30T21:35:44;7.90;;;5.57;;
43226;SDS011;28839;52.404;9.808;2024-01-30T21:42:39;6.45;;;4.50;;
43226;SDS011;28839;52.404;9.808;2024-01-30T21:49:33;8.10;;;6.55;;
43226;SDS011;28839;52.404;9.808;2024-01-30T21:56:27;8.93;;;5.35;;
43226;SDS011;28839;52.404;9.808;2024-01-30T22:03:22;10.23;;;6.47;;
43226;SDS011;28839;52.404;9.808;2024-01-30T22:10:16;11.80;;;6.45;;
43226;SDS011;28839;52.404;9.808;2024-01-30T22:17:10;8.40;;;6.10;;
43226;SDS011;28839;52.404;9.808;2024-01-30T22:24:05;9.77;;;6.40;;
43226;SDS011;28839;52.404;9.808;2024-01-30T22:31:00;8.30;;;5.18;;
43226;SDS011;28839;52.404;9.808;2024-01-30T22:37:54;8.27;;;5.77;;
43226;SDS011;28839;52.404;9.808;2024-01-30T22:44:49;6.40;;;4.32;;
43226;SDS011;28839;52.404;9.808;2024-01-30T22:51:43;8.35;;;4.32;;
43226;SDS011;28839;52.404;9.808;2024-01-30T22:58:40;5.47;;;4.07;;
43226;SDS011;28839;52.404;9.808;2024-01-30T23:05:36;7.18;;;3.80;;
43226;SDS011;28839;52.404;9.808;2024-01-30T23:12:29;5.75;;;3.85;;
43226;SDS011;28839;52.404;9.808;2024-01-30T23:19:23;6.82;;;4.80;;
43226;SDS011;28839;52.404;9.808;2024-01-30T23:26:18;5.35;;;4.35;;
43226;SDS011;28839;52.404;9.808;2024-01-30T23:33:12;7.55;;;4.78;;
43226;SDS011;28839;52.404;9.808;2024-01-30T23:40:08;5.70;;;4.57;;
43226;SDS011;28839;52.404;9.808;2024-01-30T23:47:05;7.57;;;4.95;;
43226;SDS011;28839;52.404;9.808;2024-01-30T23:53:59;7.28;;;4.35;;
